Nyk Deneb — 3EOF8 — position and weather

sailwx.info

Track history (hours):
 
Tides and Currents Weather Stations Pressure Air Temp Water Temp Dewpoint Dewpoint Depression Visibility Wind Speed Wind Dir Waves Ship Positions

Nyk Deneb

Last reported at 2017-Nov-24 16:00 UTC. Time now 2017-Nov-24 16:25 UTC.
Position N 51°15' E 001°48'.

Length 294 m; draft 12.6 m.

Type: Ship (hazmat cat B). MMSI: 355717000.

Date/timePositionNaut miles runAvg speedWind from/ knotsBaromVisibWave heightAir tempDewpointWater temp
2017-Nov-24 16:00N 51°15' E 001°48'510.6
2017-Nov-24 15:30N 51°19' E 001°53'611.0
2017-Nov-24 15:00N 51°24' E 001°58'5 9.1
2017-Nov-24 14:30N 51°23' E 002°05'611.5
2017-Nov-24 14:00N 51°21' E 002°14'611.4
2017-Nov-24 13:30N 51°21' E 002°23'612.0
2017-Nov-24 13:00N 51°23' E 002°32'612.3
2017-Nov-24 12:30N 51°23' E 002°42'713.8
2017-Nov-24 12:00N 51°25' E 002°53'1019.6
2017-Nov-24 11:30N 51°24' E 003°08'1019.4
2017-Nov-24 11:00N 51°25' E 003°24'713.5
2017-Nov-24 10:30N 51°26' E 003°34'5 9.7
2017-Nov-24 10:00N 51°25' E 003°42'713.8
2017-Nov-24 09:30N 51°21' E 003°50'816.1
2017-Nov-24 09:01N 51°26' E 003°59'612.6
2017-Nov-24 08:30N 51°22' E 004°07'4 8.9
2017-Nov-24 08:00N 51°21' E 004°14'2 3.8
2017-Nov-24 07:30N 51°20' E 004°17'0 0.0
2017-Nov-24 07:00N 51°20' E 004°17'0 0.0
2017-Nov-24 06:30N 51°20' E 004°17'0 0.0
2017-Nov-24 06:00N 51°20' E 004°17'0 0.0
2017-Nov-24 05:21N 51°20' E 004°17'0 0.0
2017-Nov-24 04:58N 51°20' E 004°17'0 0.0
2017-Nov-24 04:26N 51°20' E 004°17'0 0.0
2017-Nov-24 04:00N 51°20' E 004°17'0 0.0
2017-Nov-24 03:30N 51°20' E 004°17'0 0.0
2017-Nov-24 02:57N 51°20' E 004°17'0 0.0
2017-Nov-24 02:31N 51°20' E 004°17'0 0.0
2017-Nov-24 02:00N 51°20' E 004°17'0 0.0
2017-Nov-24 01:31N 51°20' E 004°17'0 0.0
2017-Nov-24 01:00N 51°20' E 004°17'0 0.0
2017-Nov-24 00:27N 51°20' E 004°17'0 0.0
2017-Nov-23 23:59N 51°20' E 004°17'0 0.0
2017-Nov-23 23:30N 51°20' E 004°17'0 0.0
2017-Nov-23 23:00N 51°20' E 004°17'0 0.0
2017-Nov-23 22:30N 51°20' E 004°17'0 0.0
2017-Nov-23 22:01N 51°20' E 004°17'0 0.0
2017-Nov-23 21:30N 51°20' E 004°17'0 0.0
2017-Nov-23 21:01N 51°20' E 004°17'0 0.0
2017-Nov-23 20:30N 51°20' E 004°17'0 0.0
2017-Nov-23 19:57N 51°20' E 004°17'0 0.0
2017-Nov-23 19:18N 51°20' E 004°17'0 0.0
2017-Nov-23 19:00N 51°20' E 004°17'2 3.6
2017-Nov-23 18:31N 51°21' E 004°14'3 6.8
2017-Nov-23 18:01N 51°23' E 004°09'5 9.7
2017-Nov-23 17:31N 51°24' E 004°02'3 6.4
2017-Nov-23 17:00N 51°23' E 003°57'612.0
2017-Nov-23 16:30N 51°21' E 003°48'612.1
2017-Nov-23 16:01N 51°25' E 003°42'510.2
2017-Nov-23 15:30N 51°25' E 003°34'611.7
2017-Nov-23 15:00N 51°24' E 003°24'611.8
2017-Nov-23 14:30N 51°25' E 003°15'612.3
2017-Nov-23 14:00N 51°24' E 003°05'4 8.9
2017-Nov-23 13:30N 51°27' E 002°60'612.1
2017-Nov-23 13:00N 51°32' E 003°06'816.8
2017-Nov-23 12:30N 51°40' E 003°12'510.0
2017-Nov-23 12:00N 51°45' E 003°13'2 3.5
2017-Nov-23 11:30N 51°46' E 003°12'3 4.5
2017-Nov-23 10:54N 51°48' E 003°09'2 5.4
2017-Nov-23 10:28N 51°50' E 003°07'1 1.9
2017-Nov-23 09:58N 51°49' E 003°06'2 3.6
2017-Nov-23 09:23N 51°47' E 003°08'2 3.9
2017-Nov-23 08:58N 51°46' E 003°09'2 3.4
2017-Nov-23 08:31N 51°46' E 003°11'2 3.2
2017-Nov-23 07:56N 51°48' E 003°12'1 2.9
2017-Nov-23 07:30N 51°49' E 003°12'2 2.6
2017-Nov-23 06:48N 51°51' E 003°13'1 3.1
2017-Nov-23 06:29N 51°52' E 003°14'5 5.7
2017-Nov-23 05:36N 51°49' E 003°07'1 8.1
2017-Nov-23 05:27N 51°48' E 003°08'3 5.6
2017-Nov-23 05:00N 51°46' E 003°11'4 7.1
2017-Nov-23 04:26N 51°49' E 003°16'610.0
2017-Nov-23 03:51N 51°55' E 003°18'411.9
2017-Nov-23 03:30N 51°59' E 003°19'612.1
2017-Nov-23 03:00N 52°05' E 003°22'713.6
2017-Nov-23 02:30N 52°11' E 003°23'714.3
2017-Nov-23 02:00N 52°18' E 003°26'815.1
2017-Nov-23 01:30N 52°26' E 003°28'815.6
2017-Nov-23 01:00N 52°33' E 003°29'714.5
2017-Nov-23 00:30N 52°40' E 003°35'816.0
2017-Nov-23 00:00N 52°46' E 003°44'816.1
2017-Nov-22 23:30N 52°52' E 003°52'815.9
2017-Nov-22 23:00N 52°58' E 004°00'815.3
2017-Nov-22 22:30N 53°03' E 004°10'815.1
2017-Nov-22 22:00N 53°08' E 004°20'815.1
2017-Nov-22 21:30N 53°14' E 004°27'814.9
2017-Nov-22 20:59N 53°21' E 004°34'815.9
2017-Nov-22 20:30N 53°28' E 004°38'715.2
2017-Nov-22 20:00N 53°32' E 004°49'815.4
2017-Nov-22 19:30N 53°34' E 005°01'  
2017-Nov-20 00:29N 51°57' E 004°03'0 0.0
2017-Nov-19 23:59N 51°57' E 004°03'0 0.0
2017-Nov-19 23:29N 51°57' E 004°03'0 0.0
2017-Nov-19 22:59N 51°57' E 004°03'0 0.0
2017-Nov-19 22:23N 51°57' E 004°03'0 0.0
2017-Nov-19 21:59N 51°57' E 004°03'0 0.0
2017-Nov-19 21:29N 51°57' E 004°03'0 0.0
2017-Nov-19 20:59N 51°57' E 004°03'0 0.0
2017-Nov-19 20:29N 51°57' E 004°03'0 0.0
2017-Nov-19 19:59N 51°57' E 004°03'0 0.0
2017-Nov-19 19:29N 51°57' E 004°03'0 0.0
2017-Nov-19 18:59N 51°57' E 004°03'1 1.2
2017-Nov-19 18:30N 51°57' E 004°04'2 4.0
2017-Nov-19 18:00N 51°59' E 004°04'5 9.3
2017-Nov-19 17:30N 52°01' E 003°57'3 5.9
2017-Nov-19 17:00N 52°01' E 003°52'5 9.6
2017-Nov-19 16:30N 51°59' E 003°45'510.0
2017-Nov-19 16:00N 51°58' E 003°37'4 7.9
2017-Nov-19 15:30N 51°56' E 003°31'4 8.5
2017-Nov-19 15:00N 51°55' E 003°24'3615.6
2017-Nov-19 12:40N 51°41' E 002°30'420.9
2017-Nov-19 12:30N 51°38' E 002°26'1020.8
2017-Nov-19 12:01N 51°31' E 002°15'1019.5
2017-Nov-19 11:31N 51°23' E 002°07'1019.0
2017-Nov-19 11:00N 51°14' E 002°02'1020.3
2017-Nov-19 10:30N 51°08' E 001°49'1019.7
2017-Nov-19 10:00N 51°01' E 001°38'1019.1
2017-Nov-19 09:30N 50°53' E 001°29'918.7
2017-Nov-19 09:00N 50°45' E 001°22'1119.6
2017-Nov-19 08:28N 50°37' E 001°10'919.6
2017-Nov-19 07:59N 50°32' E 000°58'1020.5
2017-Nov-19 07:29N 50°29' E 000°43'1020.1
2017-Nov-19 07:00N 50°26' E 000°29'1020.1
2017-Nov-19 06:30N 50°23' E 000°13'1019.7
2017-Nov-19 06:00N 50°22' W 000°02'1019.6
2017-Nov-19 05:30N 50°24' W 000°17'1019.7
2017-Nov-19 05:00N 50°28' W 000°30'1019.5
2017-Nov-19 04:30N 50°32' W 000°44'917.0
2017-Nov-19 04:00N 50°37' W 000°55'4 8.5
2017-Nov-19 03:30N 50°41' W 000°57'917.6
2017-Nov-19 03:00N 50°46' W 001°09'612.1
2017-Nov-19 02:31N 50°49' W 001°17'611.0
2017-Nov-19 02:00N 50°53' W 001°23'3 5.1
2017-Nov-19 01:30N 50°54' W 001°26'1 0.2
2017-Nov-18 20:45N 50°55' W 001°28'0 0.0
2017-Nov-18 06:00N 50°55' W 001°28'1 1.6
2017-Nov-18 05:31N 50°54' W 001°27'3 5.1
2017-Nov-18 05:00N 50°53' W 001°23'5 9.5
2017-Nov-18 04:31N 50°49' W 001°18'4 8.0
2017-Nov-18 04:00N 50°46' W 001°15'816.4
2017-Nov-18 03:31N 50°44' W 001°02'611.0
2017-Nov-18 03:00N 50°39' W 000°57'5 9.6
2017-Nov-18 02:30N 50°35' W 000°59'5 9.0
2017-Nov-18 02:00N 50°31' W 001°03'612.3
2017-Nov-18 01:30N 50°28' W 001°12'714.3
2017-Nov-18 01:00N 50°26' W 001°23'714.3
2017-Nov-18 00:30N 50°24' W 001°34'714.5
2017-Nov-18 00:00N 50°23' W 001°45'714.4
2017-Nov-17 23:30N 50°21' W 001°55'714.4
2017-Nov-17 23:00N 50°19' W 002°06'914.2
2017-Nov-17 22:22N 50°16' W 002°20'514.2
2017-Nov-17 22:00N 50°15' W 002°28'714.3
2017-Nov-17 21:30N 50°13' W 002°38'714.3
2017-Nov-17 21:00N 50°11' W 002°49'714.3
2017-Nov-17 20:30N 50°09' W 003°00'714.4
2017-Nov-17 20:00N 50°07' W 003°11'714.5
2017-Nov-17 19:30N 50°06' W 003°22'714.8
2017-Nov-17 19:00N 50°04' W 003°33'714.8
2017-Nov-17 18:30N 50°01' W 003°44'714.7
2017-Nov-17 18:00N 49°59' W 003°55'714.7
2017-Nov-17 17:30N 49°58' W 004°06'814.8
2017-Nov-17 17:00N 49°56' W 004°18'714.9
2017-Nov-17 16:30N 49°54' W 004°29'714.8
2017-Nov-17 16:00N 49°53' W 004°40'714.8
2017-Nov-17 15:30N 49°51' W 004°51'814.9
2017-Nov-17 14:58N 49°48' W 005°03'715.0
2017-Nov-17 14:30N 49°47' W 005°13'814.7
2017-Nov-17 13:59N 49°45' W 005°25'815.3
2017-Nov-17 13:30N 49°44' W 005°36'815.2
2017-Nov-17 12:59N 49°41' W 005°48'914.9
2017-Nov-17 12:21N 49°39' W 006°01'715.3
2017-Nov-17 11:56N 49°38' W 006°11'815.3
2017-Nov-17 11:27N 49°38' W 006°23'715.0
2017-Nov-17 10:58N 49°38' W 006°34'2514.9
2017-Nov-17 09:17N 49°40' W 007°12'1714.9
2017-Nov-17 08:09N 49°41' W 007°39'2913.6
2017-Nov-17 06:00N 49°42' W 008°24'8514.2 170 / 121026.3 5.4 13.0 5.116.0
2017-Nov-17 00:00N 49°48' W 010°36'5985498.8 180 / 131031.6 5.4 12.0 8.317.0
2017-Nov-16 12:00S 49°48' W 016°06'5978996.4 220 / 331026.3 2.2 13.0 9.4
2017-Nov-16 06:00N 49°48' W 018°54'10918.2 080 / 81014.3 5.4 11.0 5.017.0
2017-Nov-16 00:00N 49°36' W 021°42'33318.5 190 / 291019.3 5.4 11.0 7.215.0
2017-Nov-15 06:00N 48°48' W 030°06'11519.2 080 / 131014.3 5.4 10.0 8.117.0
2017-Nov-15 00:00N 48°18' W 032°54'   040 / 131019.6 5.4 13.0 7.318.0
Track history (hours):
 
Tides and Currents Weather Stations Pressure Air Temp Water Temp Dewpoint Dewpoint Depression Visibility Wind Speed Wind Dir Waves Ship Positions

Nyk Deneb

Last reported at 2017-Nov-24 16:00 UTC. Time now 2017-Nov-24 16:25 UTC.
Position N 51°15' E 001°48'.

Length 294 m; draft 12.6 m.

Type: Ship (hazmat cat B). MMSI: 355717000.

Date/timePositionNaut miles runAvg speedWind from/ knotsBaromVisibWave heightAir tempDewpointWater temp
2017-Nov-24 16:00N 51°15' E 001°48'510.6
2017-Nov-24 15:30N 51°19' E 001°53'611.0
2017-Nov-24 15:00N 51°24' E 001°58'5 9.1
2017-Nov-24 14:30N 51°23' E 002°05'611.5
2017-Nov-24 14:00N 51°21' E 002°14'611.4
2017-Nov-24 13:30N 51°21' E 002°23'612.0
2017-Nov-24 13:00N 51°23' E 002°32'612.3
2017-Nov-24 12:30N 51°23' E 002°42'713.8
2017-Nov-24 12:00N 51°25' E 002°53'1019.6
2017-Nov-24 11:30N 51°24' E 003°08'1019.4
2017-Nov-24 11:00N 51°25' E 003°24'713.5
2017-Nov-24 10:30N 51°26' E 003°34'5 9.7
2017-Nov-24 10:00N 51°25' E 003°42'713.8
2017-Nov-24 09:30N 51°21' E 003°50'816.1
2017-Nov-24 09:01N 51°26' E 003°59'612.6
2017-Nov-24 08:30N 51°22' E 004°07'4 8.9
2017-Nov-24 08:00N 51°21' E 004°14'2 3.8
2017-Nov-24 07:30N 51°20' E 004°17'0 0.0
2017-Nov-24 07:00N 51°20' E 004°17'0 0.0
2017-Nov-24 06:30N 51°20' E 004°17'0 0.0
2017-Nov-24 06:00N 51°20' E 004°17'0 0.0
2017-Nov-24 05:21N 51°20' E 004°17'0 0.0
2017-Nov-24 04:58N 51°20' E 004°17'0 0.0
2017-Nov-24 04:26N 51°20' E 004°17'0 0.0
2017-Nov-24 04:00N 51°20' E 004°17'0 0.0
2017-Nov-24 03:30N 51°20' E 004°17'0 0.0
2017-Nov-24 02:57N 51°20' E 004°17'0 0.0
2017-Nov-24 02:31N 51°20' E 004°17'0 0.0
2017-Nov-24 02:00N 51°20' E 004°17'0 0.0
2017-Nov-24 01:31N 51°20' E 004°17'0 0.0
2017-Nov-24 01:00N 51°20' E 004°17'0 0.0
2017-Nov-24 00:27N 51°20' E 004°17'0 0.0
2017-Nov-23 23:59N 51°20' E 004°17'0 0.0
2017-Nov-23 23:30N 51°20' E 004°17'0 0.0
2017-Nov-23 23:00N 51°20' E 004°17'0 0.0
2017-Nov-23 22:30N 51°20' E 004°17'0 0.0
2017-Nov-23 22:01N 51°20' E 004°17'0 0.0
2017-Nov-23 21:30N 51°20' E 004°17'0 0.0
2017-Nov-23 21:01N 51°20' E 004°17'0 0.0
2017-Nov-23 20:30N 51°20' E 004°17'0 0.0
2017-Nov-23 19:57N 51°20' E 004°17'0 0.0
2017-Nov-23 19:18N 51°20' E 004°17'0 0.0
2017-Nov-23 19:00N 51°20' E 004°17'2 3.6
2017-Nov-23 18:31N 51°21' E 004°14'3 6.8
2017-Nov-23 18:01N 51°23' E 004°09'5 9.7
2017-Nov-23 17:31N 51°24' E 004°02'3 6.4
2017-Nov-23 17:00N 51°23' E 003°57'612.0
2017-Nov-23 16:30N 51°21' E 003°48'612.1
2017-Nov-23 16:01N 51°25' E 003°42'510.2
2017-Nov-23 15:30N 51°25' E 003°34'611.7
2017-Nov-23 15:00N 51°24' E 003°24'611.8
2017-Nov-23 14:30N 51°25' E 003°15'612.3
2017-Nov-23 14:00N 51°24' E 003°05'4 8.9
2017-Nov-23 13:30N 51°27' E 002°60'612.1
2017-Nov-23 13:00N 51°32' E 003°06'816.8
2017-Nov-23 12:30N 51°40' E 003°12'510.0
2017-Nov-23 12:00N 51°45' E 003°13'2 3.5
2017-Nov-23 11:30N 51°46' E 003°12'3 4.5
2017-Nov-23 10:54N 51°48' E 003°09'2 5.4
2017-Nov-23 10:28N 51°50' E 003°07'1 1.9
2017-Nov-23 09:58N 51°49' E 003°06'2 3.6
2017-Nov-23 09:23N 51°47' E 003°08'2 3.9
2017-Nov-23 08:58N 51°46' E 003°09'2 3.4
2017-Nov-23 08:31N 51°46' E 003°11'2 3.2
2017-Nov-23 07:56N 51°48' E 003°12'1 2.9
2017-Nov-23 07:30N 51°49' E 003°12'2 2.6
2017-Nov-23 06:48N 51°51' E 003°13'1 3.1
2017-Nov-23 06:29N 51°52' E 003°14'5 5.7
2017-Nov-23 05:36N 51°49' E 003°07'1 8.1
2017-Nov-23 05:27N 51°48' E 003°08'3 5.6
2017-Nov-23 05:00N 51°46' E 003°11'4 7.1
2017-Nov-23 04:26N 51°49' E 003°16'610.0
2017-Nov-23 03:51N 51°55' E 003°18'411.9
2017-Nov-23 03:30N 51°59' E 003°19'612.1
2017-Nov-23 03:00N 52°05' E 003°22'713.6
2017-Nov-23 02:30N 52°11' E 003°23'714.3
2017-Nov-23 02:00N 52°18' E 003°26'815.1
2017-Nov-23 01:30N 52°26' E 003°28'815.6
2017-Nov-23 01:00N 52°33' E 003°29'714.5
2017-Nov-23 00:30N 52°40' E 003°35'816.0
2017-Nov-23 00:00N 52°46' E 003°44'816.1
2017-Nov-22 23:30N 52°52' E 003°52'815.9
2017-Nov-22 23:00N 52°58' E 004°00'815.3
2017-Nov-22 22:30N 53°03' E 004°10'815.1
2017-Nov-22 22:00N 53°08' E 004°20'815.1
2017-Nov-22 21:30N 53°14' E 004°27'814.9
2017-Nov-22 20:59N 53°21' E 004°34'815.9
2017-Nov-22 20:30N 53°28' E 004°38'715.2
2017-Nov-22 20:00N 53°32' E 004°49'815.4
2017-Nov-22 19:30N 53°34' E 005°01'  
2017-Nov-20 00:29N 51°57' E 004°03'0 0.0
2017-Nov-19 23:59N 51°57' E 004°03'0 0.0
2017-Nov-19 23:29N 51°57' E 004°03'0 0.0
2017-Nov-19 22:59N 51°57' E 004°03'0 0.0
2017-Nov-19 22:23N 51°57' E 004°03'0 0.0
2017-Nov-19 21:59N 51°57' E 004°03'0 0.0
2017-Nov-19 21:29N 51°57' E 004°03'0 0.0
2017-Nov-19 20:59N 51°57' E 004°03'0 0.0
2017-Nov-19 20:29N 51°57' E 004°03'0 0.0
2017-Nov-19 19:59N 51°57' E 004°03'0 0.0
2017-Nov-19 19:29N 51°57' E 004°03'0 0.0
2017-Nov-19 18:59N 51°57' E 004°03'1 1.2
2017-Nov-19 18:30N 51°57' E 004°04'2 4.0
2017-Nov-19 18:00N 51°59' E 004°04'5 9.3
2017-Nov-19 17:30N 52°01' E 003°57'3 5.9
2017-Nov-19 17:00N 52°01' E 003°52'5 9.6
2017-Nov-19 16:30N 51°59' E 003°45'510.0
2017-Nov-19 16:00N 51°58' E 003°37'4 7.9
2017-Nov-19 15:30N 51°56' E 003°31'4 8.5
2017-Nov-19 15:00N 51°55' E 003°24'3615.6
2017-Nov-19 12:40N 51°41' E 002°30'420.9
2017-Nov-19 12:30N 51°38' E 002°26'1020.8
2017-Nov-19 12:01N 51°31' E 002°15'1019.5
2017-Nov-19 11:31N 51°23' E 002°07'1019.0
2017-Nov-19 11:00N 51°14' E 002°02'1020.3
2017-Nov-19 10:30N 51°08' E 001°49'1019.7
2017-Nov-19 10:00N 51°01' E 001°38'1019.1
2017-Nov-19 09:30N 50°53' E 001°29'918.7
2017-Nov-19 09:00N 50°45' E 001°22'1119.6
2017-Nov-19 08:28N 50°37' E 001°10'919.6
2017-Nov-19 07:59N 50°32' E 000°58'1020.5
2017-Nov-19 07:29N 50°29' E 000°43'1020.1
2017-Nov-19 07:00N 50°26' E 000°29'1020.1
2017-Nov-19 06:30N 50°23' E 000°13'1019.7
2017-Nov-19 06:00N 50°22' W 000°02'1019.6
2017-Nov-19 05:30N 50°24' W 000°17'1019.7
2017-Nov-19 05:00N 50°28' W 000°30'1019.5
2017-Nov-19 04:30N 50°32' W 000°44'917.0
2017-Nov-19 04:00N 50°37' W 000°55'4 8.5
2017-Nov-19 03:30N 50°41' W 000°57'917.6
2017-Nov-19 03:00N 50°46' W 001°09'612.1
2017-Nov-19 02:31N 50°49' W 001°17'611.0
2017-Nov-19 02:00N 50°53' W 001°23'3 5.1
2017-Nov-19 01:30N 50°54' W 001°26'1 0.2
2017-Nov-18 20:45N 50°55' W 001°28'0 0.0
2017-Nov-18 06:00N 50°55' W 001°28'1 1.6
2017-Nov-18 05:31N 50°54' W 001°27'3 5.1
2017-Nov-18 05:00N 50°53' W 001°23'5 9.5
2017-Nov-18 04:31N 50°49' W 001°18'4 8.0
2017-Nov-18 04:00N 50°46' W 001°15'816.4
2017-Nov-18 03:31N 50°44' W 001°02'611.0
2017-Nov-18 03:00N 50°39' W 000°57'5 9.6
2017-Nov-18 02:30N 50°35' W 000°59'5 9.0
2017-Nov-18 02:00N 50°31' W 001°03'612.3
2017-Nov-18 01:30N 50°28' W 001°12'714.3
2017-Nov-18 01:00N 50°26' W 001°23'714.3
2017-Nov-18 00:30N 50°24' W 001°34'714.5
2017-Nov-18 00:00N 50°23' W 001°45'714.4
2017-Nov-17 23:30N 50°21' W 001°55'714.4
2017-Nov-17 23:00N 50°19' W 002°06'914.2
2017-Nov-17 22:22N 50°16' W 002°20'514.2
2017-Nov-17 22:00N 50°15' W 002°28'714.3
2017-Nov-17 21:30N 50°13' W 002°38'714.3
2017-Nov-17 21:00N 50°11' W 002°49'714.3
2017-Nov-17 20:30N 50°09' W 003°00'714.4
2017-Nov-17 20:00N 50°07' W 003°11'714.5
2017-Nov-17 19:30N 50°06' W 003°22'714.8
2017-Nov-17 19:00N 50°04' W 003°33'714.8
2017-Nov-17 18:30N 50°01' W 003°44'714.7
2017-Nov-17 18:00N 49°59' W 003°55'714.7
2017-Nov-17 17:30N 49°58' W 004°06'814.8
2017-Nov-17 17:00N 49°56' W 004°18'714.9
2017-Nov-17 16:30N 49°54' W 004°29'714.8
2017-Nov-17 16:00N 49°53' W 004°40'714.8
2017-Nov-17 15:30N 49°51' W 004°51'814.9
2017-Nov-17 14:58N 49°48' W 005°03'715.0
2017-Nov-17 14:30N 49°47' W 005°13'814.7
2017-Nov-17 13:59N 49°45' W 005°25'815.3
2017-Nov-17 13:30N 49°44' W 005°36'815.2
2017-Nov-17 12:59N 49°41' W 005°48'914.9
2017-Nov-17 12:21N 49°39' W 006°01'715.3
2017-Nov-17 11:56N 49°38' W 006°11'815.3
2017-Nov-17 11:27N 49°38' W 006°23'715.0
2017-Nov-17 10:58N 49°38' W 006°34'2514.9
2017-Nov-17 09:17N 49°40' W 007°12'1714.9
2017-Nov-17 08:09N 49°41' W 007°39'2913.6
2017-Nov-17 06:00N 49°42' W 008°24'8514.2 170 / 121026.3 5.4 13.0 5.116.0
2017-Nov-17 00:00N 49°48' W 010°36'5985498.8 180 / 131031.6 5.4 12.0 8.317.0
2017-Nov-16 12:00S 49°48' W 016°06'5978996.4 220 / 331026.3 2.2 13.0 9.4
2017-Nov-16 06:00N 49°48' W 018°54'10918.2 080 / 81014.3 5.4 11.0 5.017.0
2017-Nov-16 00:00N 49°36' W 021°42'33318.5 190 / 291019.3 5.4 11.0 7.215.0
2017-Nov-15 06:00N 48°48' W 030°06'11519.2 080 / 131014.3 5.4 10.0 8.117.0
2017-Nov-15 00:00N 48°18' W 032°54'   040 / 131019.6 5.4 13.0 7.318.0

Dump ship's entire track history